MUHAKSRQ

Guest
Details From MUHA - La Havane Jose Marti Intl
To KSRQ - Sarasota Bradenton Intl
Flight Number -
Tags Generated
Created
Modified
Stats Distance 265 nm / 491 km
Max Altitude 0 ft / 0 m
Waypoints 3
Social Downloads 1
Likes 0
Share VATSIM

Download

Looking for another format? Having issues loading an existing format? Contact us
Advertisement - Login to hide

Notes

Generated

Route

MUHA JIVGA KSRQ

ID Type Via Altitude Latitude Longitude Leg Dist Tot Dist Heading (true) Name
O MUHA APT - 0 ft / 0 m 22.97863˚ -82.42494˚ - 0 nm - -
JIVGA FIX - 0 ft / 0 m 27.13272˚ -82.50967˚ 249 nm 249 nm 359° / 359° -
O KSRQ APT - 0 ft / 0 m 27.38998˚ -82.55765˚ 15 nm 265 nm 351° / 351° -

Altitude Profile

Advertisement - Login to hide

Weather


0- 5 10 15 20 25 30 35+ Temperature / ° C

Clouds and Precipitation
Forecast for 2018-05-23 18:00 UTC. Updated 2 hours ago

Ground ~20,000 ft ~40,000 ft Winds

MUHA

Details ICAO MUHA (HAV)
Name Havana Jose Marti Intl
Region Cuba
Timezone America/Havana (UTC-4.0)
Stats Elevation 209 ft / 64 m (AMSL)
Location 22.989154° -82.409086°
Runways 1
Magnetic Variation 4.959° W

METAR

MUHA 231855Z 16007KT 120V200 9000 BKN020 OVC180 27/23 Q1017

Decode

TAF

Not found

Departure Runways

ID Width Length Bearing (true) Bearing (mag) Surface Threshold Offset Overrun Length
06 148 ft / 45 m 13,133 ft / 4,003 m 54.21° 59.17° Asphalt 0 ft / 0 m 476 ft / 145 m
24 148 ft / 45 m 13,133 ft / 4,003 m 234.23° 239.19° Asphalt 0 ft / 0 m 197 ft / 60 m

KSRQ

Details ICAO KSRQ (SRQ)
Name Sarasota Bradenton Intl
Region United States
Timezone America/New_York (UTC-4.0)
Stats Elevation 31 ft / 9 m (AMSL)
Location 27.395443° -82.554035°
Runways 2
Magnetic Variation 5.504° W

METAR

KSRQ 231853Z AUTO 26008KT 10SM FEW065 29/22 A3005 RMK AO2 SLP174 T02940222

Decode

TAF

KSRQ 231746Z 2318/2418 12007KT P6SM SCT040 SCT250 FM231900 26008KT P6SM VCTS SCT035CB BKN050 BKN250 FM240100 VRB04KT P6SM FEW030 SCT250 FM241400 12006KT P6SM SCT020 BKN250

Decode

Destination Runways

ID Width Length Bearing (true) Bearing (mag) Surface Threshold Offset Overrun Length
04 150 ft / 46 m 5,019 ft / 1,530 m 37.96° 43.46° Asphalt 0 ft / 0 m 0 ft / 0 m
14 150 ft / 46 m 9,510 ft / 2,899 m 134.53° 140.03° Asphalt 1,350 ft / 411 m 0 ft / 0 m
22 150 ft / 46 m 5,019 ft / 1,530 m 217.96° 223.46° Asphalt 0 ft / 0 m 0 ft / 0 m
32 150 ft / 46 m 9,510 ft / 2,899 m 314.54° 320.04° Asphalt 1,147 ft / 350 m 0 ft / 0 m

Approach Navaids

Runway Type Ident Frequency Range Bearing (true) Bearing (mag) Slope Elevation
14 Localiser IFFV 111.30 MHz 18 nm / 33 km 134.53° 140.04° - 27 ft / 8 m (AMSL)
14 Glidescope IFFV 111.30 MHz 10 nm / 19 km 134.53° 140.04° 3.00° 22 ft / 7 m (AMSL)
14 DME IFFV 111.30 MHz 18 nm / 33 km - - - 31 ft / 9 m (AMSL)
32 Localiser ISRQ 109.70 MHz 18 nm / 33 km 314.53° 320.04° - 25 ft / 8 m (AMSL)
32 Glidescope ISRQ 109.70 MHz 10 nm / 19 km 314.53° 320.04° 3.00° 24 ft / 7 m (AMSL)

Popular Alternatives